Time;durP1;ratioP1;P1;durP2;ratioP2;P2;SDS_P1;SDS_P2;PMS_P1;PMS_P2;Temp;Humidity;BMP_temperature;BMP_pressure;BME280_temperature;BME280_humidity;BME280_pressure;Samples;Min_cycle;Max_cycle;Signal;HPM_P1;HPM_P2
2021/10/14 00:01:01;;;;;;;16.02;9.20;;;;;;;2.27;83.13;97979.09;1766069;81;21089;-78
2021/10/14 00:03:28;;;;;;;14.68;9.33;;;;;;;2.23;83.41;97983.02;1765704;81;20955;-78
2021/10/14 00:05:54;;;;;;;16.40;8.88;;;;;;;2.18;83.24;97979.52;1765752;81;20941;-78
2021/10/14 00:08:20;;;;;;;15.03;8.78;;;;;;;2.18;83.29;97979.52;1766102;81;20963;-78
2021/10/14 00:10:47;;;;;;;15.10;9.18;;;;;;;2.22;83.43;97979.09;1765981;81;20952;-78
2021/10/14 00:13:13;;;;;;;15.78;8.13;;;;;;;2.19;83.79;97979.06;1765517;80;21389;-79
2021/10/14 00:15:42;;;;;;;18.05;9.35;;;;;;;2.16;83.80;97981.23;1765237;81;21000;-79
2021/10/14 00:18:09;;;;;;;16.45;9.23;;;;;;;2.17;83.85;97984.73;1764470;81;21026;-78
2021/10/14 00:20:35;;;;;;;17.00;7.97;;;;;;;2.19;83.69;97985.60;1764124;81;21011;-79
2021/10/14 00:23:02;;;;;;;14.03;8.55;;;;;;;2.18;83.85;97987.78;1764250;81;20987;-78
2021/10/14 00:25:28;;;;;;;12.80;7.95;;;;;;;2.19;84.05;97973.41;1765365;81;20974;-78
2021/10/14 00:27:55;;;;;;;15.53;8.68;;;;;;;2.20;84.26;97981.69;1740087;81;21010;-78
2021/10/14 00:30:23;;;;;;;12.63;7.58;;;;;;;2.22;84.44;97977.36;1765221;81;21746;-78
2021/10/14 00:32:49;;;;;;;14.07;8.10;;;;;;;2.22;84.19;97970.83;1765891;81;21018;-79
2021/10/14 00:35:16;;;;;;;13.88;8.33;;;;;;;2.23;84.27;97982.14;1765855;81;21534;-78
2021/10/14 00:37:42;;;;;;;14.75;9.13;;;;;;;2.19;84.29;97981.26;1766222;81;20939;-78
2021/10/14 00:40:10;;;;;;;13.10;8.05;;;;;;;2.16;84.49;97978.63;1765379;80;21505;-78
2021/10/14 00:42:37;;;;;;;15.35;8.58;;;;;;;2.14;84.42;97977.76;1764250;81;20969;-78
2021/10/14 00:45:04;;;;;;;13.68;7.97;;;;;;;2.16;84.15;97984.30;1764346;81;21027;-78
2021/10/14 00:47:31;;;;;;;15.63;9.70;;;;;;;2.08;83.91;97980.35;1764393;81;21434;-78
2021/10/14 00:49:58;;;;;;;12.30;8.30;;;;;;;2.03;84.13;97982.93;1764296;81;20999;-78
2021/10/14 00:52:25;;;;;;;16.73;9.10;;;;;;;1.98;84.08;97977.70;1764212;81;20936;-78
2021/10/14 00:54:55;;;;;;;15.43;8.93;;;;;;;1.93;83.86;97985.06;1764188;81;20995;-78
2021/10/14 00:57:22;;;;;;;15.25;8.58;;;;;;;1.85;83.83;97987.64;1766408;81;21018;-78
2021/10/14 00:59:50;;;;;;;12.95;8.30;;;;;;;1.82;83.80;97989.80;1770378;81;21058;-78
2021/10/14 01:02:16;;;;;;;15.70;9.43;;;;;;;1.81;84.07;97986.76;1770718;81;20971;-78
2021/10/14 01:04:43;;;;;;;17.40;9.00;;;;;;;1.74;83.68;97990.19;1771490;80;21380;-79
2021/10/14 01:07:10;;;;;;;15.80;8.88;;;;;;;1.68;83.68;97994.96;1775157;79;21034;-78
2021/10/14 01:09:38;;;;;;;16.73;9.25;;;;;;;1.67;83.57;97993.19;1803828;78;21078;-78
2021/10/14 01:12:05;;;;;;;15.48;9.00;;;;;;;1.61;83.37;97995.77;1803923;79;21394;-78
2021/10/14 01:14:32;;;;;;;16.05;9.40;;;;;;;1.57;83.70;98001.84;1801419;79;21426;-79
2021/10/14 01:17:00;;;;;;;16.10;9.80;;;;;;;1.56;83.82;97990.95;1804017;79;20992;-78
2021/10/14 01:19:27;;;;;;;20.62;10.15;;;;;;;1.52;83.82;98007.05;1804139;79;21464;-79
2021/10/14 01:21:53;;;;;;;14.58;9.00;;;;;;;1.45;86.70;98003.93;1804155;79;20988;-79
2021/10/14 01:24:20;;;;;;;16.50;8.55;;;;;;;1.44;84.26;98008.72;1798307;79;21030;-79
2021/10/14 01:26:47;;;;;;;17.48;8.50;;;;;;;1.39;84.01;97998.25;1772517;81;21009;-79
2021/10/14 01:29:13;;;;;;;16.07;8.00;;;;;;;1.37;83.90;98002.57;1772035;80;20983;-79
2021/10/14 01:31:40;;;;;;;15.43;8.83;;;;;;;1.36;83.75;98007.81;1771423;81;21349;-79
2021/10/14 01:34:08;;;;;;;16.55;8.33;;;;;;;1.32;84.01;98006.88;1770914;81;21006;-79
2021/10/14 01:36:36;;;;;;;15.13;7.92;;;;;;;1.30;84.15;98010.78;1770331;80;21412;-78
2021/10/14 01:39:04;;;;;;;12.33;8.48;;;;;;;1.29;83.91;98005.13;1770966;81;20991;-79
2021/10/14 01:41:30;;;;;;;14.07;8.00;;;;;;;1.29;83.78;98005.13;1770809;81;20959;-78
2021/10/14 01:43:57;;;;;;;15.18;8.60;;;;;;;1.29;83.86;98007.73;1771373;81;20983;-78
2021/10/14 01:46:24;;;;;;;17.23;8.83;;;;;;;1.29;84.19;98005.13;1791382;80;20983;-78
2021/10/14 01:48:51;;;;;;;14.03;8.05;;;;;;;1.29;84.16;98008.19;1768058;80;21023;-79
2021/10/14 01:51:18;;;;;;;15.90;9.08;;;;;;;1.35;84.57;98013.87;1791437;80;21039;-78
2021/10/14 01:53:44;;;;;;;14.07;8.20;;;;;;;1.39;84.90;98017.84;1763345;81;21353;-79
2021/10/14 01:56:11;;;;;;;14.30;8.00;;;;;;;1.42;84.85;98009.15;1790436;80;21023;-78
2021/10/14 01:58:37;;;;;;;15.45;7.97;;;;;;;1.43;84.76;98013.09;1789624;79;21020;-78
2021/10/14 02:01:04;;;;;;;19.20;8.53;;;;;;;1.44;85.01;98017.86;1789697;80;20957;-79
2021/10/14 02:03:30;;;;;;;14.95;8.13;;;;;;;1.45;85.14;98023.52;1790392;80;21314;-79
2021/10/14 02:05:57;;;;;;;13.93;7.95;;;;;;;1.44;85.14;98020.05;1791443;80;21003;-78
2021/10/14 02:08:23;;;;;;;17.40;9.63;;;;;;;1.43;85.14;98027.45;1815380;79;21353;-78
2021/10/14 02:10:50;;;;;;;14.20;8.45;;;;;;;1.47;85.66;98035.28;1823693;79;21058;-78
2021/10/14 02:13:16;;;;;;;13.93;7.97;;;;;;;1.50;85.20;98027.48;1823758;79;21034;-79
2021/10/14 02:15:42;;;;;;;13.55;8.95;;;;;;;1.48;84.98;98029.20;1824014;79;21007;-78
2021/10/14 02:18:09;;;;;;;15.08;8.55;;;;;;;1.45;84.54;98039.19;1820855;79;21414;-79
2021/10/14 02:20:37;;;;;;;12.55;8.00;;;;;;;1.41;84.90;98033.08;1790458;80;21000;-79
2021/10/14 02:23:03;;;;;;;14.58;8.38;;;;;;;1.37;84.87;98035.21;1791452;80;21015;-79
2021/10/14 02:25:30;;;;;;;14.15;8.10;;;;;;;1.37;84.65;98043.05;1790901;79;22110;-79
2021/10/14 02:27:57;;;;;;;15.58;8.43;;;;;;;1.33;84.18;98043.91;1799852;79;21054;-78
2021/10/14 02:30:23;;;;;;;17.20;9.50;;;;;;;1.29;84.50;98047.36;1823896;79;21012;-78
2021/10/14 02:32:50;;;;;;;12.05;7.72;;;;;;;1.34;85.13;98051.30;1823873;78;21374;-79
2021/10/14 02:35:16;;;;;;;13.93;7.97;;;;;;;1.34;84.92;98049.57;1823810;79;20999;-79
2021/10/14 02:37:43;;;;;;;12.75;8.50;;;;;;;1.34;85.00;98044.34;1823568;79;21011;-79
2021/10/14 02:40:10;;;;;;;18.23;8.78;;;;;;;1.38;85.08;98055.27;1824018;79;20981;-78
2021/10/14 02:42:37;;;;;;;18.65;8.90;;;;;;;1.40;84.77;98055.25;1823974;78;21422;-78
2021/10/14 02:45:05;;;;;;;15.53;9.13;;;;;;;1.43;84.90;98058.79;1824071;79;21031;-78
2021/10/14 02:47:31;;;;;;;16.82;9.58;;;;;;;1.45;84.55;98057.05;1824020;78;21456;-78
2021/10/14 02:49:58;;;;;;;16.75;8.80;;;;;;;1.48;84.57;98058.81;1805342;79;21080;-78
2021/10/14 02:52:24;;;;;;;16.60;8.90;;;;;;;1.52;84.88;98062.31;1799403;79;20973;-78
2021/10/14 02:54:51;;;;;;;15.20;8.30;;;;;;;1.52;84.62;98063.20;1789743;80;21082;-78
2021/10/14 02:57:17;;;;;;;15.75;8.73;;;;;;;1.54;84.40;98069.75;1788502;80;20995;-78
2021/10/14 02:59:44;;;;;;;18.05;8.95;;;;;;;1.54;84.35;98062.77;1774812;81;21008;-78
2021/10/14 03:02:10;;;;;;;14.25;8.63;;;;;;;1.56;84.49;98062.37;1774857;81;21009;-78
2021/10/14 03:04:36;;;;;;;15.75;9.18;;;;;;;1.59;84.84;98068.05;1774725;81;21027;-78
2021/10/14 03:07:03;;;;;;;15.58;8.45;;;;;;;1.61;84.56;98068.06;1774786;81;21003;-78
2021/10/14 03:09:29;;;;;;;15.63;8.90;;;;;;;1.62;84.57;98075.03;1774470;81;20976;-78
2021/10/14 03:11:56;;;;;;;15.13;8.43;;;;;;;1.59;85.56;98077.19;1774896;81;20995;-78
2021/10/14 03:14:22;;;;;;;16.48;9.25;;;;;;;1.57;85.56;98079.78;1786818;79;21487;-78
2021/10/14 03:16:48;;;;;;;15.85;9.55;;;;;;;1.53;84.69;98069.31;1775463;81;20964;-78
2021/10/14 03:19:15;;;;;;;17.10;9.10;;;;;;;1.53;85.06;98075.39;1774394;81;21059;-78
2021/10/14 03:21:41;;;;;;;16.25;9.10;;;;;;;1.54;84.61;98078.44;1775045;79;21468;-78
2021/10/14 03:24:08;;;;;;;17.70;8.33;;;;;;;1.54;84.69;98079.75;1777604;79;20979;-78
2021/10/14 03:26:34;;;;;;;12.03;7.95;;;;;;;1.53;84.75;98078.45;1776407;81;20952;-78
2021/10/14 03:29:00;;;;;;;15.58;8.35;;;;;;;1.55;85.54;98081.94;1775955;81;21005;-78
2021/10/14 03:31:27;;;;;;;11.88;7.87;;;;;;;1.56;85.88;98080.66;1776135;81;21018;-78
2021/10/14 03:33:56;;;;;;;13.75;7.90;;;;;;;1.55;85.56;98085.44;1776458;81;21331;-78
2021/10/14 03:36:22;;;;;;;15.10;8.20;;;;;;;1.53;85.58;98086.30;1790804;79;20979;-78
2021/10/14 03:38:49;;;;;;;13.45;7.85;;;;;;;1.53;85.48;98084.98;1806076;79;20984;-78
2021/10/14 03:41:15;;;;;;;14.73;8.08;;;;;;;1.53;85.54;98087.15;1773950;81;21027;-78
2021/10/14 03:43:42;;;;;;;14.60;8.83;;;;;;;1.55;85.87;98091.09;1776753;79;21428;-78
2021/10/14 03:46:08;;;;;;;17.87;9.08;;;;;;;1.50;85.70;98101.92;1776466;81;20956;-78
2021/10/14 03:48:35;;;;;;;13.68;8.40;;;;;;;1.41;85.71;98100.12;1766187;81;21015;-78
2021/10/14 03:51:01;;;;;;;13.20;8.50;;;;;;;1.37;85.78;98103.11;1766193;81;21058;-78
2021/10/14 03:53:28;;;;;;;16.62;9.63;;;;;;;1.36;85.44;98104.43;1766315;81;20996;-78
2021/10/14 03:55:54;;;;;;;16.45;9.20;;;;;;;1.31;85.58;98113.09;1713821;84;21042;-78
2021/10/14 03:58:21;;;;;;;26.17;14.13;;;;;;;1.28;85.12;98113.05;1764332;80;20988;-79
2021/10/14 04:00:47;;;;;;;15.43;8.88;;;;;;;1.21;86.01;98115.17;1765490;81;21385;-78
2021/10/14 04:03:14;;;;;;;15.15;9.18;;;;;;;1.09;85.22;98110.70;1777500;80;20954;-79
2021/10/14 04:05:40;;;;;;;14.13;9.35;;;;;;;1.06;85.64;98113.27;1758292;80;21415;-78
2021/10/14 04:08:06;;;;;;;15.08;9.08;;;;;;;1.02;85.29;98111.06;1765321;81;20963;-78
2021/10/14 04:10:33;;;;;;;18.25;9.75;;;;;;;0.96;85.12;98116.22;1792574;80;21024;-78
2021/10/14 04:12:59;;;;;;;14.03;9.43;;;;;;;0.94;85.57;98123.14;1792856;80;21015;-78
2021/10/14 04:15:25;;;;;;;15.38;9.23;;;;;;;0.92;85.26;98123.12;1792943;80;21004;-78
2021/10/14 04:17:52;;;;;;;16.93;9.85;;;;;;;0.88;85.17;98115.25;1793087;80;21390;-78
2021/10/14 04:20:18;;;;;;;15.55;9.60;;;;;;;0.87;85.47;98117.42;1792426;80;21004;-79
2021/10/14 04:22:45;;;;;;;16.17;9.85;;;;;;;0.89;85.41;98116.58;1795351;78;20999;-78
2021/10/14 04:25:12;;;;;;;16.62;8.88;;;;;;;0.90;85.54;98123.95;1764122;81;20962;-78
2021/10/14 04:27:39;;;;;;;16.17;9.15;;;;;;;0.88;85.22;98129.16;1769657;81;20980;-78
2021/10/14 04:30:08;;;;;;;18.60;9.48;;;;;;;0.89;85.14;98128.73;1770802;80;21364;-78
2021/10/14 04:32:34;;;;;;;16.20;9.03;;;;;;;0.89;85.12;98133.95;1772613;81;21030;-78
2021/10/14 04:35:03;;;;;;;15.55;9.63;;;;;;;0.87;84.99;98135.69;1773357;81;21006;-78
2021/10/14 04:37:30;;;;;;;17.75;9.53;;;;;;;0.87;85.05;98133.94;1772947;81;20987;-78
2021/10/14 04:39:56;;;;;;;15.60;9.38;;;;;;;0.88;85.37;98142.65;1772780;81;20982;-79
2021/10/14 04:42:23;;;;;;;21.12;10.60;;;;;;;0.92;85.45;98146.60;1773239;81;20967;-78
2021/10/14 04:44:49;;;;;;;19.45;10.43;;;;;;;0.98;85.42;98147.53;1792150;79;21000;-78
2021/10/14 04:47:18;;;;;;;18.05;10.05;;;;;;;1.01;85.31;98151.49;1779251;79;21034;-79
2021/10/14 04:49:46;;;;;;;16.73;10.70;;;;;;;1.03;85.46;98161.09;1772236;80;21030;-78
2021/10/14 04:52:12;;;;;;;16.00;9.60;;;;;;;1.09;85.37;98164.63;1772985;81;21049;-79
2021/10/14 04:54:39;;;;;;;24.50;10.05;;;;;;;1.14;85.73;98165.13;1772825;81;22082;-79
2021/10/14 04:57:05;;;;;;;18.82;10.65;;;;;;;1.20;85.47;98169.98;1772933;81;21033;-79
2021/10/14 04:59:32;;;;;;;16.52;10.38;;;;;;;1.27;85.45;98179.19;1764563;81;21022;-78
2021/10/14 05:01:58;;;;;;;19.45;11.83;;;;;;;1.34;85.56;98175.33;1761436;81;20948;-78
2021/10/14 05:04:25;;;;;;;20.52;11.55;;;;;;;1.40;85.62;98182.80;1762025;81;21044;-80
2021/10/14 05:06:51;;;;;;;22.02;12.63;;;;;;;1.51;85.84;98184.64;1762110;80;20972;-80
2021/10/14 05:09:17;;;;;;;20.75;11.53;;;;;;;1.57;86.38;98182.97;1794191;80;20968;-80
2021/10/14 05:11:44;;;;;;;17.42;10.40;;;;;;;1.61;85.66;98189.09;1763738;81;21004;-80
2021/10/14 05:14:10;;;;;;;22.93;11.95;;;;;;;1.62;86.11;98187.37;1794443;80;21437;-80
2021/10/14 05:16:37;;;;;;;22.65;11.50;;;;;;;1.65;86.27;98190.88;1763642;81;21063;-79
2021/10/14 05:19:04;;;;;;;18.62;11.00;;;;;;;1.70;85.89;98190.48;1785455;79;20997;-79
2021/10/14 05:21:31;;;;;;;28.05;11.68;;;;;;;1.80;86.07;98196.69;1753841;81;21018;-79
2021/10/14 05:23:59;;;;;;;19.67;10.38;;;;;;;1.90;85.76;98198.05;1791312;80;21445;-79
2021/10/14 05:26:28;;;;;;;18.55;10.93;;;;;;;1.98;85.66;98197.27;1785937;80;21138;-79
2021/10/14 05:28:56;;;;;;;23.20;11.38;;;;;;;2.09;85.68;98203.02;1786887;80;21019;-77
2021/10/14 05:31:23;;;;;;;18.90;10.15;;;;;;;2.17;85.74;98197.42;1789382;80;21043;-77
2021/10/14 05:33:50;;;;;;;19.67;10.60;;;;;;;2.27;85.71;98199.66;1789701;80;20988;-77
2021/10/14 05:36:17;;;;;;;18.98;10.90;;;;;;;2.38;85.74;98205.83;1789594;80;20988;-79
2021/10/14 05:38:44;;;;;;;14.75;9.15;;;;;;;2.50;85.56;98201.11;1789579;80;20989;-80
2021/10/14 05:41:10;;;;;;;16.10;9.40;;;;;;;2.62;85.68;98214.70;1789760;80;21401;-79
2021/10/14 05:43:37;;;;;;;17.10;10.48;;;;;;;2.71;85.31;98202.55;1789797;80;21079;-79
2021/10/14 05:46:03;;;;;;;21.52;10.82;;;;;;;2.79;85.47;98209.13;1789942;80;20951;-79
2021/10/14 05:48:30;;;;;;;18.77;10.68;;;;;;;2.90;85.66;98204.39;1789979;80;21052;-80
2021/10/14 05:50:56;;;;;;;15.98;9.78;;;;;;;3.01;85.31;98205.75;1789596;80;21011;-80
2021/10/14 05:53:23;;;;;;;16.73;10.13;;;;;;;3.11;84.98;98209.72;1789629;80;21055;-80
2021/10/14 05:55:49;;;;;;;19.98;11.43;;;;;;;3.22;84.99;98210.63;1789966;80;20964;-78
2021/10/14 05:58:16;;;;;;;20.40;11.48;;;;;;;3.29;84.42;98218.08;1789100;80;21051;-80
2021/10/14 06:00:42;;;;;;;23.57;11.80;;;;;;;3.33;84.12;98213.72;1767018;80;21019;-80
2021/10/14 06:03:08;;;;;;;20.30;10.32;;;;;;;3.41;84.23;98219.41;1776317;80;20976;-80
2021/10/14 06:05:35;;;;;;;19.50;10.82;;;;;;;3.48;83.83;98220.76;1782703;80;21032;-80
2021/10/14 06:08:01;;;;;;;17.15;10.50;;;;;;;3.52;83.53;98229.04;1767032;81;21408;-80
2021/10/14 06:10:29;;;;;;;20.23;11.48;;;;;;;3.58;83.38;98234.74;1780448;80;21043;-82
2021/10/14 06:12:55;;;;;;;21.30;11.05;;;;;;;3.64;83.40;98234.33;1736378;83;21018;-84
2021/10/14 06:15:22;;;;;;;18.67;10.10;;;;;;;3.71;83.38;98236.53;1784456;80;21428;-81
2021/10/14 06:17:48;;;;;;;21.60;10.35;;;;;;;3.74;82.91;98233.03;1736792;83;21117;-82
2021/10/14 06:20:15;;;;;;;20.35;11.25;;;;;;;3.74;82.66;98238.28;1783873;80;20964;-81
2021/10/14 06:22:41;;;;;;;19.42;10.90;;;;;;;3.75;82.20;98251.39;1724987;82;21076;-81
2021/10/14 06:25:09;;;;;;;21.52;12.13;;;;;;;3.74;82.62;98247.00;1773864;80;20995;-82
2021/10/14 06:27:35;;;;;;;18.77;11.20;;;;;;;3.80;82.64;98248.77;1784444;80;20980;-81
2021/10/14 06:30:03;;;;;;;17.87;11.30;;;;;;;3.87;82.45;98257.52;1783655;80;21046;-81
2021/10/14 06:32:30;;;;;;;18.62;11.28;;;;;;;3.93;82.36;98254.48;1783647;80;20964;-82
2021/10/14 06:34:57;;;;;;;18.80;11.08;;;;;;;4.03;82.27;98255.34;1775236;80;20968;-82
2021/10/14 06:37:23;;;;;;;19.10;12.13;;;;;;;4.12;82.33;98246.63;1774130;76;21028;-81
2021/10/14 06:39:50;;;;;;;19.82;11.95;;;;;;;4.21;81.88;98249.69;1761649;79;21064;-82
2021/10/14 06:42:16;;;;;;;20.85;12.05;;;;;;;4.27;82.07;98258.86;1785154;80;21308;-82
2021/10/14 06:44:42;;;;;;;20.55;11.70;;;;;;;4.35;81.98;98256.23;1768938;76;21017;-82
2021/10/14 06:47:09;;;;;;;19.92;11.73;;;;;;;4.41;81.80;98265.87;1766220;79;20933;-81
2021/10/14 06:49:35;;;;;;;20.05;12.25;;;;;;;4.48;81.77;98271.53;1785779;80;20975;-82
2021/10/14 06:52:02;;;;;;;18.52;11.90;;;;;;;4.56;81.58;98264.97;1785757;80;21019;-79
2021/10/14 06:54:29;;;;;;;19.12;11.78;;;;;;;4.64;81.68;98265.84;1784534;80;20976;-81
2021/10/14 06:56:55;;;;;;;18.45;11.90;;;;;;;4.74;81.67;98262.78;1785253;80;20972;-81
2021/10/14 06:59:22;;;;;;;20.15;11.95;;;;;;;4.82;81.26;98275.89;1783208;80;21018;-79
2021/10/14 07:01:48;;;;;;;18.67;12.63;;;;;;;4.86;80.93;98271.93;1781438;80;21019;-81
2021/10/14 07:04:14;;;;;;;19.87;12.33;;;;;;;4.93;80.91;98269.28;1781351;80;21015;-81
2021/10/14 07:06:41;;;;;;;20.43;13.03;;;;;;;4.98;80.56;98275.43;1781724;80;21473;-81
2021/10/14 07:09:07;;;;;;;20.05;12.07;;;;;;;5.02;80.61;98277.14;1781655;80;20980;-81
2021/10/14 07:11:40;;;;;;;20.43;12.93;;;;;;;5.09;80.21;98274.95;1781776;80;20964;-81
2021/10/14 07:14:03;;;;;;;21.90;12.20;;;;;;;5.15;80.31;98274.92;1781219;80;21022;-82
2021/10/14 07:16:29;;;;;;;18.25;11.80;;;;;;;5.24;80.16;98275.32;1781232;80;20992;-81
2021/10/14 07:18:56;;;;;;;21.60;11.97;;;;;;;5.32;80.12;98277.06;1761338;80;20992;-81
2021/10/14 07:21:23;;;;;;;20.20;11.95;;;;;;;5.40;79.88;98272.66;1781512;80;21031;-81
2021/10/14 07:23:50;;;;;;;21.40;12.25;;;;;;;5.47;79.49;98277.42;1781563;80;20992;-81
2021/10/14 07:26:16;;;;;;;16.87;11.22;;;;;;;5.54;79.30;98281.36;1762077;80;21029;-81
2021/10/14 07:28:43;;;;;;;19.90;11.95;;;;;;;5.58;79.00;98281.33;1760086;81;21041;-82
2021/10/14 07:31:10;;;;;;;16.62;10.68;;;;;;;5.66;79.08;98285.66;1763791;80;20988;-84
2021/10/14 07:33:40;;;;;;;19.45;10.53;;;;;;;5.71;77.96;98287.39;1754996;80;21099;-83
2021/10/14 07:36:08;;;;;;;19.62;12.18;;;;;;;5.80;78.55;98288.23;1797579;79;21011;-83
2021/10/14 07:38:34;;;;;;;16.97;10.23;;;;;;;5.94;78.39;98294.72;1804427;79;21420;-83
2021/10/14 07:41:01;;;;;;;16.37;10.82;;;;;;;6.04;76.51;98296.02;1793588;79;20979;-83
2021/10/14 07:43:27;;;;;;;18.60;11.18;;;;;;;6.11;76.11;98297.73;1795752;79;20930;-81
2021/10/14 07:45:54;;;;;;;18.67;11.33;;;;;;;6.13;76.41;98295.95;1772634;80;20988;-83
2021/10/14 07:48:20;;;;;;;17.70;10.20;;;;;;;6.24;76.81;98295.89;1810289;79;20972;-82
2021/10/14 07:50:47;;;;;;;17.17;10.32;;;;;;;6.26;76.14;98300.69;1743169;81;21526;-78
2021/10/14 07:53:19;;;;;;;18.27;10.53;;;;;;;6.34;76.55;98298.88;1775258;79;20943;-79
2021/10/14 07:55:48;;;;;;;19.00;10.85;;;;;;;6.43;76.35;98297.05;1792392;79;20963;-77
2021/10/14 07:58:14;;;;;;;16.40;10.03;;;;;;;6.54;76.15;98306.18;1801721;79;20964;-78
2021/10/14 08:00:43;;;;;;;17.50;10.48;;;;;;;6.62;75.93;98305.69;1801300;79;21388;-77
2021/10/14 08:03:10;;;;;;;16.02;9.43;;;;;;;6.72;75.97;98310.41;1784905;79;21051;-77
2021/10/14 08:05:38;;;;;;;14.00;9.65;;;;;;;6.79;75.02;98304.65;1778112;79;20985;-79
2021/10/14 08:08:05;;;;;;;17.80;10.65;;;;;;;6.84;74.58;98301.09;1799250;79;21266;-81
2021/10/14 08:10:33;;;;;;;17.92;9.93;;;;;;;6.99;75.25;98302.69;1795171;79;21046;-82
2021/10/14 08:13:00;;;;;;;18.82;11.38;;;;;;;7.19;75.54;98299.43;1762300;81;21099;-80
2021/10/14 08:15:27;;;;;;;19.85;11.88;;;;;;;7.40;75.03;98300.49;1794410;79;21076;-80
2021/10/14 08:17:54;;;;;;;23.60;15.50;;;;;;;7.56;75.00;98295.02;1762347;81;20959;-81
2021/10/14 08:20:21;;;;;;;22.58;12.95;;;;;;;7.73;75.33;98293.95;1761653;81;21488;-81
2021/10/14 08:22:49;;;;;;;23.30;12.65;;;;;;;7.81;75.23;98299.13;1789034;80;20950;-80
2021/10/14 08:25:15;;;;;;;27.13;13.40;;;;;;;7.89;75.33;98302.08;1761484;81;21003;-81
2021/10/14 08:27:44;;;;;;;22.98;12.68;;;;;;;7.97;74.98;98296.69;1788949;80;21026;-81
2021/10/14 08:30:13;;;;;;;24.47;13.22;;;;;;;8.13;75.29;98289.86;1764135;80;21086;-81
2021/10/14 08:32:42;;;;;;;24.32;13.13;;;;;;;8.27;74.04;98287.88;1822968;79;21029;-81
2021/10/14 08:35:10;;;;;;;21.68;12.80;;;;;;;8.42;74.26;98297.35;1821022;79;21465;-81
2021/10/14 08:37:37;;;;;;;23.92;12.70;;;;;;;8.58;74.25;98294.48;1816884;78;21015;-80
2021/10/14 08:40:06;;;;;;;22.77;13.40;;;;;;;8.69;73.73;98303.56;1794520;80;20952;-80
2021/10/14 08:42:33;;;;;;;24.60;13.40;;;;;;;8.78;73.64;98295.48;1794798;80;20986;-81
2021/10/14 08:45:04;;;;;;;22.50;12.25;;;;;;;8.82;72.45;98293.21;1813928;78;21477;-80
2021/10/14 08:47:32;;;;;;;23.77;13.10;;;;;;;8.81;70.94;98293.23;1824277;78;20977;-81
2021/10/14 08:49:59;;;;;;;22.87;13.32;;;;;;;8.76;71.95;98285.84;1824154;79;21056;-80
2021/10/14 08:52:26;;;;;;;23.83;13.35;;;;;;;8.68;71.71;98299.18;1819493;79;21325;-81
2021/10/14 08:54:53;;;;;;;21.05;12.75;;;;;;;8.56;71.42;98298.94;1820502;79;20946;-80
2021/10/14 08:57:19;;;;;;;25.05;14.00;;;;;;;8.47;72.10;98301.22;1804114;78;20947;-80
2021/10/14 08:59:46;;;;;;;22.90;13.72;;;;;;;8.43;71.92;98295.59;1791841;79;21073;-81
2021/10/14 09:02:17;;;;;;;23.40;13.80;;;;;;;8.29;71.83;98292.72;1791845;79;21008;-80
2021/10/14 09:04:57;;;;;;;21.42;12.07;;;;;;;8.20;72.75;98296.81;1741268;80;20998;-80
2021/10/14 09:07:28;;;;;;;22.87;13.25;;;;;;;8.11;73.15;98299.16;1807483;79;20991;-80
2021/10/14 09:10:00;;;;;;;26.93;13.55;;;;;;;8.08;73.40;98303.58;1799192;79;21326;-80
2021/10/14 09:12:34;;;;;;;29.65;14.10;;;;;;;8.06;73.48;98307.12;1782915;80;20999;-79
2021/10/14 09:15:06;;;;;;;24.60;13.88;;;;;;;8.10;73.49;98305.77;1807505;79;20995;-79
2021/10/14 09:17:49;;;;;;;24.72;14.45;;;;;;;8.14;73.44;98301.72;1817011;78;20988;-79
2021/10/14 09:20:36;;;;;;;25.43;13.78;;;;;;;8.13;73.29;98302.63;1756296;81;20987;-80
2021/10/14 09:23:24;;;;;;;26.40;15.32;;;;;;;8.00;73.70;98301.94;1736815;83;21006;-80
2021/10/14 09:25:54;;;;;;;27.37;13.95;;;;;;;7.88;74.46;98298.13;1756572;82;20980;-80
2021/10/14 09:28:28;;;;;;;26.10;14.33;;;;;;;7.87;74.52;98301.67;1769078;80;20961;-80
2021/10/14 09:31:03;;;;;;;25.68;13.70;;;;;;;7.93;74.50;98301.15;1778944;80;21028;-80
2021/10/14 09:33:47;;;;;;;22.60;13.55;;;;;;;8.00;74.34;98302.37;1788817;79;21382;-80
2021/10/14 09:36:27;;;;;;;24.25;13.62;;;;;;;8.11;74.13;98300.91;1767157;81;21469;-79
2021/10/14 09:39:03;;;;;;;27.55;14.43;;;;;;;8.24;74.11;98302.48;1792086;79;20961;-80
2021/10/14 09:41:37;;;;;;;24.15;13.55;;;;;;;8.38;74.22;98296.97;1819588;79;21005;-80
2021/10/14 09:44:22;;;;;;;23.15;12.73;;;;;;;8.51;72.64;98296.79;1815929;79;20957;-80
2021/10/14 09:46:50;;;;;;;23.35;13.13;;;;;;;8.54;72.19;98297.64;1764664;80;20960;-80
2021/10/14 09:49:33;;;;;;;19.85;11.48;;;;;;;8.63;72.42;98300.56;1794181;79;21062;-80
2021/10/14 09:52:01;;;;;;;21.15;12.70;;;;;;;8.69;71.12;98289.03;1794789;79;21013;-80
2021/10/14 09:54:31;;;;;;;24.72;13.90;;;;;;;8.90;72.61;98295.72;1798412;79;20965;-80
2021/10/14 09:56:58;;;;;;;22.48;13.35;;;;;;;9.09;73.42;98282.12;1795671;79;21011;-79
2021/10/14 09:59:25;;;;;;;23.83;13.65;;;;;;;9.27;71.63;98287.98;1788014;79;20967;-80
2021/10/14 10:01:56;;;;;;;22.90;13.88;;;;;;;9.48;73.29;98289.33;1794832;79;21102;-80
2021/10/14 10:04:26;;;;;;;21.17;13.45;;;;;;;9.68;70.37;98288.89;1823899;79;20993;-80
2021/10/14 10:06:56;;;;;;;20.50;12.40;;;;;;;9.73;68.81;98282.20;1824014;78;20970;-80
2021/10/14 10:09:26;;;;;;;23.65;13.78;;;;;;;9.68;68.20;98284.08;1794477;79;20990;-80
2021/10/14 10:11:57;;;;;;;21.37;13.83;;;;;;;9.83;69.82;98276.23;1764934;79;21475;-80
2021/10/14 10:14:26;;;;;;;21.70;14.07;;;;;;;9.88;67.98;98287.16;1806390;79;20975;-80
2021/10/14 10:17:06;;;;;;;21.02;13.50;;;;;;;10.01;68.71;98282.45;1799246;78;21007;-80
2021/10/14 10:19:49;;;;;;;24.60;14.03;;;;;;;10.03;68.16;98286.39;1803229;79;20948;-80
2021/10/14 10:22:39;;;;;;;22.50;13.00;;;;;;;9.95;68.33;98282.59;1774817;79;21423;-80
2021/10/14 10:25:28;;;;;;;21.23;13.15;;;;;;;9.94;68.81;98291.89;1760629;81;21008;-80
2021/10/14 10:27:57;;;;;;;22.37;13.85;;;;;;;9.89;68.95;98289.36;1796272;79;21423;-80
2021/10/14 10:30:34;;;;;;;20.45;12.53;;;;;;;9.85;68.29;98287.69;1794748;80;21014;-80
2021/10/14 10:33:02;;;;;;;22.32;13.88;;;;;;;9.76;68.17;98283.47;1802282;79;20958;-80
2021/10/14 10:35:45;;;;;;;22.58;14.13;;;;;;;9.73;67.17;98283.08;1811568;79;21021;-80
2021/10/14 10:38:23;;;;;;;24.20;13.75;;;;;;;9.72;68.17;98279.99;1760666;81;21029;-80
2021/10/14 10:40:55;;;;;;;23.30;13.70;;;;;;;9.68;68.37;98279.63;1760931;81;21375;-80
2021/10/14 10:43:30;;;;;;;20.17;13.78;;;;;;;9.70;68.37;98284.46;1760912;81;21381;-80
2021/10/14 10:46:07;;;;;;;;;;;;;;;9.63;68.04;98278.42;1763334;81;21016;-80
2021/10/14 10:48:43;;;;;;;22.37;13.88;;;;;;;9.64;68.28;98277.52;1781182;78;20089;-80
2021/10/14 10:51:28;;;;;;;24.55;14.70;;;;;;;9.74;68.78;98268.94;1797684;79;21042;-80
2021/10/14 10:53:55;;;;;;;20.65;12.90;;;;;;;9.83;68.56;98270.94;1799292;78;21388;-80
2021/10/14 10:56:38;;;;;;;24.57;13.65;;;;;;;9.93;68.60;98267.22;1790325;80;21101;-80
2021/10/14 10:59:06;;;;;;;24.40;14.13;;;;;;;10.16;68.99;98264.02;1790459;80;21502;-80
2021/10/14 11:01:32;;;;;;;24.00;13.98;;;;;;;10.33;68.07;98263.22;1813206;79;21061;-81
2021/10/14 11:04:02;;;;;;;21.95;13.70;;;;;;;10.35;66.83;98251.67;1819705;79;20963;-79
2021/10/14 11:06:32;;;;;;;30.62;13.83;;;;;;;10.39;67.23;98259.08;1819575;79;21037;-81
2021/10/14 11:09:12;;;;;;;22.48;14.28;;;;;;;10.39;66.98;98257.75;1819656;79;21066;-80
2021/10/14 11:11:37;;;;;;;21.30;13.15;;;;;;;10.40;67.06;98263.02;1819428;79;21105;-80
2021/10/14 11:14:05;;;;;;;20.50;12.95;;;;;;;10.47;66.82;98264.22;1819514;79;21384;-80
2021/10/14 11:16:33;;;;;;;21.57;13.58;;;;;;;10.52;67.34;98256.58;1819694;78;21005;-80
2021/10/14 11:19:01;;;;;;;20.57;12.88;;;;;;;10.57;66.68;98259.10;1793531;78;20999;-80
2021/10/14 11:21:29;;;;;;;19.87;12.98;;;;;;;10.56;66.33;98263.52;1787338;80;20991;-80
2021/10/14 11:23:59;;;;;;;20.30;13.13;;;;;;;10.50;65.67;98265.48;1787415;80;21055;-80
2021/10/14 11:26:35;;;;;;;22.75;12.95;;;;;;;10.53;66.87;98253.02;1787472;80;21106;-80
2021/10/14 11:29:24;;;;;;;20.05;12.63;;;;;;;10.58;65.88;98246.73;1787454;80;21015;-79
2021/10/14 11:32:02;;;;;;;20.32;13.10;;;;;;;10.62;65.91;98241.30;1787159;80;21019;-80
2021/10/14 11:34:29;;;;;;;20.60;13.18;;;;;;;10.69;66.27;98243.34;1787510;80;20956;-80